Time;durP1;ratioP1;P1;durP2;ratioP2;P2;SDS_P1;SDS_P2;PMS_P1;PMS_P2;Temp;Humidity;BMP_temperature;BMP_pressure;BME280_temperature;BME280_humidity;BME280_pressure;Samples;Min_cycle;Max_cycle;Signal;HPM_P1;HPM_P2
2022/02/25 00:01:11;;;;;;;5.30;1.38;;;4.10;99.90;;;;;;6154649;23;20005;-89
2022/02/25 00:03:45;;;;;;;7.13;1.45;;;4.10;99.90;;;;;;6120966;23;20388;-90
2022/02/25 00:06:21;;;;;;;5.50;1.58;;;4.00;99.90;;;;;;6107967;23;20047;-89
2022/02/25 00:08:50;;;;;;;8.02;1.50;;;4.00;99.90;;;;;;6131997;23;20010;-90
2022/02/25 00:11:19;;;;;;;7.78;1.65;;;4.00;99.90;;;;;;6155115;23;20249;-90
2022/02/25 00:16:49;;;;;;;4.80;1.73;;;3.90;99.90;;;;;;6151262;23;20067;-94
2022/02/25 00:22:09;;;;;;;7.07;1.50;;;4.00;99.90;;;;;;6140348;23;20032;-90
2022/02/25 00:24:48;;;;;;;9.05;2.70;;;4.00;99.90;;;;;;6155826;23;20436;-89
2022/02/25 00:27:46;;;;;;;;;;;;;;;;;;;;;
2022/02/25 00:30:30;;;;;;;6.72;1.90;;;3.90;99.90;;;;;;6157279;23;20085;-89
2022/02/25 00:33:07;;;;;;;10.63;1.77;;;3.90;99.90;;;;;;6155585;23;20014;-89
2022/02/25 00:35:57;;;;;;;6.70;2.00;;;3.90;99.90;;;;;;6156292;23;20005;-89
2022/02/25 00:38:35;;;;;;;;;;;;;;;;;;;;;
2022/02/25 00:41:34;;;;;;;;;;;;;;;;;;;;;
2022/02/25 00:44:29;;;;;;;6.65;1.52;;;3.80;99.90;;;;;;6158457;23;20081;-89
2022/02/25 00:47:04;;;;;;;6.03;1.80;;;3.90;99.90;;;;;;6142825;23;20001;-89
2022/02/25 00:49:33;;;;;;;7.38;1.85;;;3.90;99.90;;;;;;6173120;23;20010;-91
2022/02/25 00:52:24;;;;;;;6.22;1.52;;;3.90;99.90;;;;;;6178531;23;20005;-92
2022/02/25 00:55:00;;;;;;;;;;;;;;;;;;;;;
2022/02/25 00:57:38;;;;;;;;;;;;;;;;;;;;;
2022/02/25 01:00:20;;;;;;;6.78;1.48;;;4.00;99.90;;;;;;6171566;23;19997;-90
2022/02/25 01:06:15;;;;;;;5.43;1.40;;;4.00;99.90;;;;;;6044001;23;20353;-90
2022/02/25 01:09:06;;;;;;;6.32;2.30;;;4.00;99.90;;;;;;6156909;23;20032;-89
2022/02/25 01:11:57;;;;;;;8.90;1.95;;;4.00;99.90;;;;;;6116012;23;20447;-89
2022/02/25 01:14:25;;;;;;;10.23;1.80;;;4.00;99.90;;;;;;6115532;23;20010;-90
2022/02/25 01:17:12;;;;;;;;;;;;;;;;;;;;;
2022/02/25 01:19:49;;;;;;;7.85;1.73;;;3.90;99.90;;;;;;6165872;23;20029;-90
2022/02/25 01:25:30;;;;;;;;;;;;;;;;;;;;;
2022/02/25 01:28:38;;;;;;;;;;;;;;;;;;;;;
2022/02/25 01:31:23;;;;;;;;;;;;;;;;;;;;;
2022/02/25 01:34:00;;;;;;;8.35;1.77;;;3.70;99.90;;;;;;6156357;23;20081;-90
2022/02/25 01:36:46;;;;;;;7.93;2.40;;;3.70;99.90;;;;;;6155340;23;20005;-89
2022/02/25 01:39:24;;;;;;;;;;;;;;;;;;;;;
2022/02/25 01:42:18;;;;;;;;;;;;;;;;;;;;;
2022/02/25 01:45:14;;;;;;;11.45;2.78;;;3.60;99.90;;;;;;6157002;23;20085;-89
2022/02/25 01:47:48;;;;;;;9.35;2.25;;;3.60;99.90;;;;;;6132264;23;20037;-89
2022/02/25 01:50:26;;;;;;;8.20;2.38;;;3.60;99.90;;;;;;6155700;23;20041;-89
2022/02/25 01:53:12;;;;;;;9.77;3.08;;;3.60;99.90;;;;;;6131633;23;20433;-91
2022/02/25 01:56:11;;;;;;;10.05;2.80;;;3.60;99.90;;;;;;6155651;23;20101;-88
2022/02/25 01:58:48;;;;;;;8.60;2.90;;;3.60;99.90;;;;;;6155563;23;20309;-89
2022/02/25 02:01:24;;;;;;;;;;;;;;;;;;;;;
2022/02/25 02:04:06;;;;;;;;;;;;;;;;;;;;;
2022/02/25 02:06:43;;;;;;;10.48;2.80;;;3.60;99.90;;;;;;6156202;23;20389;-89
2022/02/25 02:09:19;;;;;;;10.25;2.92;;;3.60;99.90;;;;;;6154934;23;19998;-90
2022/02/25 02:12:04;;;;;;;15.93;3.13;;;3.60;99.90;;;;;;6132917;23;20010;-91
2022/02/25 02:14:37;;;;;;;9.45;2.42;;;3.60;99.90;;;;;;6156703;23;20028;-89
2022/02/25 02:17:13;;;;;;;6.32;2.53;;;3.60;99.90;;;;;;6130875;23;20016;-90
2022/02/25 02:19:42;;;;;;;7.50;2.65;;;3.70;99.90;;;;;;6155067;23;20006;-90
2022/02/25 02:22:14;;;;;;;13.23;4.57;;;3.70;99.90;;;;;;6154585;23;20005;-90
2022/02/25 02:30:46;;;;;;;11.45;2.97;;;3.60;99.90;;;;;;6157529;23;20020;-90
2022/02/25 02:33:17;;;;;;;14.35;3.40;;;3.60;99.90;;;;;;6157163;23;20444;-90
2022/02/25 02:35:46;;;;;;;15.32;4.00;;;3.70;99.90;;;;;;6157170;23;20002;-89
2022/02/25 02:38:22;;;;;;;10.23;2.88;;;3.70;99.90;;;;;;6158540;23;19998;-91
2022/02/25 02:40:55;;;;;;;9.90;3.28;;;3.70;99.90;;;;;;6156867;23;19998;-90
2022/02/25 02:43:44;;;;;;;11.40;2.90;;;3.70;99.90;;;;;;6132626;23;20010;-93
2022/02/25 02:46:20;;;;;;;11.45;3.00;;;3.70;99.90;;;;;;6156155;23;20029;-91
2022/02/25 02:48:54;;;;;;;9.77;2.50;;;3.70;99.90;;;;;;6156784;23;20017;-90
2022/02/25 02:51:33;;;;;;;10.05;2.90;;;3.70;99.90;;;;;;6160167;23;20028;-89
2022/02/25 02:54:10;;;;;;;8.63;3.05;;;3.60;99.90;;;;;;6160466;23;20052;-91
2022/02/25 02:56:48;;;;;;;11.55;2.80;;;3.60;99.90;;;;;;6159089;23;20005;-91
2022/02/25 02:59:23;;;;;;;;;;;;;;;;;;;;;
2022/02/25 03:01:54;;;;;;;10.52;3.08;;;3.60;99.90;;;;;;6158025;23;20080;-91
2022/02/25 03:04:41;;;;;;;9.52;3.08;;;3.60;99.90;;;;;;6157069;23;20008;-90
2022/02/25 03:07:15;;;;;;;15.80;3.65;;;3.60;99.90;;;;;;6133819;23;20068;-91
2022/02/25 03:10:00;;;;;;;8.43;2.83;;;3.60;99.90;;;;;;6156784;23;20002;-92
2022/02/25 03:12:28;;;;;;;14.48;3.00;;;3.60;99.90;;;;;;6156937;23;20017;-90
2022/02/25 03:15:09;;;;;;;9.18;2.83;;;3.60;99.90;;;;;;6132286;23;20438;-90
2022/02/25 03:17:38;;;;;;;10.23;2.92;;;3.60;99.90;;;;;;6158565;23;20001;-90
2022/02/25 03:20:23;;;;;;;;;;;;;;;;;;;;;
2022/02/25 03:23:09;;;;;;;12.43;2.88;;;3.60;99.90;;;;;;6157841;23;20061;-92
2022/02/25 03:25:53;;;;;;;17.33;2.85;;;3.60;99.90;;;;;;6157220;23;20066;-90
2022/02/25 03:28:19;;;;;;;13.50;3.90;;;3.60;99.90;;;;;;6132457;23;20500;-90
2022/02/25 03:30:47;;;;;;;9.57;3.03;;;3.60;99.90;;;;;;6155556;23;20036;-90
2022/02/25 03:33:31;;;;;;;12.88;3.20;;;3.60;99.90;;;;;;6156351;23;20413;-89
2022/02/25 03:36:08;;;;;;;6.07;2.05;;;3.60;99.90;;;;;;6135200;23;20010;-91
2022/02/25 03:38:39;;;;;;;16.73;2.78;;;3.60;99.90;;;;;;6156918;23;19997;-91
2022/02/25 03:41:05;;;;;;;;;;;3.60;99.90;;;;;;6133298;23;20013;-92
2022/02/25 03:43:52;;;;;;;;;;;;;;;;;;;;;
2022/02/25 03:46:18;;;;;;;9.88;2.20;;;3.50;99.90;;;;;;6156922;23;20490;-90
2022/02/25 03:49:51;;;;;;;8.98;2.65;;;3.60;99.90;;;;;;6156308;23;20466;-90
2022/02/25 03:51:52;;;;;;;10.75;2.38;;;3.50;99.90;;;;;;6151548;23;20014;-90
2022/02/25 03:54:33;;;;;;;11.00;2.30;;;3.60;99.90;;;;;;6156232;23;20002;-90
2022/02/25 03:57:10;;;;;;;13.35;3.88;;;3.60;99.90;;;;;;6156767;23;20084;-91
2022/02/25 03:59:46;;;;;;;12.27;2.40;;;3.60;99.90;;;;;;6181777;23;20002;-90
2022/02/25 04:02:24;;;;;;;;;;;;;;;;;;;;;
2022/02/25 04:05:10;;;;;;;;;;;;;;;;;;;;;
2022/02/25 04:08:00;;;;;;;8.90;2.45;;;3.50;99.90;;;;;;6156591;23;20076;-92
2022/02/25 04:10:41;;;;;;;11.70;3.15;;;3.50;99.90;;;;;;6156011;23;20016;-90
2022/02/25 04:13:21;;;;;;;10.40;2.22;;;3.50;99.90;;;;;;6156039;23;20018;-93
2022/02/25 04:15:54;;;;;;;9.30;2.40;;;3.50;99.90;;;;;;6156674;23;20159;-90
2022/02/25 04:18:23;;;;;;;16.92;2.60;;;3.50;99.90;;;;;;6158510;23;20006;-89
2022/02/25 04:20:59;;;;;;;11.23;2.65;;;3.50;99.90;;;;;;6174108;23;20002;-90
2022/02/25 04:23:48;;;;;;;11.68;2.40;;;3.50;99.90;;;;;;6177862;23;20002;-90
2022/02/25 04:26:22;;;;;;;9.88;2.05;;;3.50;99.90;;;;;;6146906;23;20036;-89
2022/02/25 04:29:05;;;;;;;;;;;;;;;;;;;;;
2022/02/25 04:31:55;;;;;;;;;;;;;;;;;;;;;
2022/02/25 04:34:30;;;;;;;8.15;2.45;;;3.50;99.90;;;;;;6179955;23;20005;-91
2022/02/25 04:37:06;;;;;;;10.57;2.58;;;3.50;99.90;;;;;;6182819;23;20290;-93
2022/02/25 04:39:51;;;;;;;10.40;2.30;;;3.50;99.90;;;;;;6158792;23;20014;-94
2022/02/25 04:42:40;;;;;;;10.90;2.55;;;3.50;99.90;;;;;;6153389;23;20036;-90
2022/02/25 04:45:22;;;;;;;13.95;2.38;;;3.50;99.90;;;;;;6180216;23;20057;-93
2022/02/25 04:48:01;;;;;;;;;;;;;;;;;;;;;
2022/02/25 04:50:46;;;;;;;12.93;2.22;;;3.50;99.90;;;;;;6163713;23;20507;-91
2022/02/25 04:53:19;;;;;;;17.58;2.78;;;3.50;99.90;;;;;;6161503;23;20017;-92
2022/02/25 04:55:56;;;;;;;11.50;2.33;;;3.50;99.90;;;;;;6136886;23;20005;-91
2022/02/25 04:58:35;;;;;;;10.43;1.90;;;3.50;99.90;;;;;;6187402;23;20070;-91
2022/02/25 05:01:51;;;;;;;;;;;;;;;;;;;;;
2022/02/25 05:07:25;;;;;;;17.42;2.40;;;3.50;99.90;;;;;;6154172;23;20006;-90
2022/02/25 05:10:12;;;;;;;;;;;;;;;;;;;;;
2022/02/25 05:12:48;;;;;;;13.68;3.05;;;3.50;99.90;;;;;;6186870;23;20507;-90
2022/02/25 05:21:08;;;;;;;12.23;2.30;;;3.50;99.90;;;;;;6187228;23;20037;-90
2022/02/25 05:23:34;;;;;;;11.10;2.75;;;3.50;99.90;;;;;;6159829;23;20001;-91
2022/02/25 05:26:22;;;;;;;;;;;;;;;;;;;;;
2022/02/25 05:28:51;;;;;;;10.07;2.63;;;3.50;99.90;;;;;;6164860;23;20081;-91
2022/02/25 05:31:37;;;;;;;;;;;;;;;;;;;;;
2022/02/25 05:34:11;;;;;;;10.02;2.80;;;3.50;99.90;;;;;;6186445;23;20130;-92
2022/02/25 05:36:57;;;;;;;;;;;;;;;;;;;;;
2022/02/25 05:40:04;;;;;;;18.42;3.35;;;3.50;99.90;;;;;;6163267;23;20080;-91
2022/02/25 05:42:43;;;;;;;;;;;;;;;;;;;;;
2022/02/25 05:45:21;;;;;;;13.40;2.03;;;3.50;99.90;;;;;;6186732;23;20076;-92
2022/02/25 05:47:58;;;;;;;11.68;2.35;;;3.50;99.90;;;;;;6158702;23;20016;-92
2022/02/25 05:50:35;;;;;;;13.55;3.15;;;3.50;99.90;;;;;;6101979;23;20018;-91
2022/02/25 05:53:07;;;;;;;17.15;3.65;;;3.60;99.90;;;;;;6126286;23;20045;-91
2022/02/25 05:55:59;;;;;;;10.48;2.42;;;3.50;99.90;;;;;;6125709;23;19998;-91
2022/02/25 05:58:42;;;;;;;;;;;;;;;;;;;;;
2022/02/25 06:01:16;;;;;;;16.92;3.17;;;3.60;99.90;;;;;;6127412;23;20089;-91
2022/02/25 06:04:10;;;;;;;15.00;2.45;;;3.60;99.90;;;;;;6101250;23;20006;-91
2022/02/25 06:06:40;;;;;;;22.98;2.95;;;3.60;99.90;;;;;;6129109;23;20010;-90
2022/02/25 06:09:26;;;;;;;12.60;2.45;;;3.60;99.90;;;;;;6109934;23;20002;-90
2022/02/25 06:12:05;;;;;;;16.10;3.25;;;3.70;99.90;;;;;;6128239;23;20010;-91
2022/02/25 06:15:03;;;;;;;11.95;3.35;;;3.70;99.90;;;;;;6103790;23;20034;-91
2022/02/25 06:17:36;;;;;;;13.07;2.85;;;3.70;99.90;;;;;;6125484;23;20006;-90
2022/02/25 06:20:29;;;;;;;;;;;;;;;;;;;;;
2022/02/25 06:23:21;;;;;;;12.98;2.47;;;3.80;99.90;;;;;;6126722;23;20085;-88
2022/02/25 06:25:58;;;;;;;18.05;2.72;;;3.90;99.90;;;;;;6105695;23;20006;-91
2022/02/25 06:29:35;;;;;;;12.48;3.35;;;3.90;99.90;;;;;;6125695;23;20065;-91
2022/02/25 06:32:06;;;;;;;13.55;2.22;;;3.90;99.90;;;;;;6100469;23;20010;-90
2022/02/25 06:34:42;;;;;;;18.50;2.83;;;3.90;99.90;;;;;;6102195;23;20065;-91
2022/02/25 06:43:43;;;;;;;11.32;2.83;;;4.00;99.90;;;;;;6126954;23;20013;-90
2022/02/25 06:49:17;;;;;;;18.73;2.88;;;4.00;99.90;;;;;;6144655;23;20016;-92
2022/02/25 06:51:48;;;;;;;20.38;3.20;;;4.00;99.90;;;;;;6162110;23;20371;-91
2022/02/25 06:57:13;;;;;;;15.32;2.80;;;4.00;99.90;;;;;;6190245;23;20088;-90
2022/02/25 07:03:10;;;;;;;15.30;2.90;;;4.10;99.90;;;;;;6124989;23;20009;-90
2022/02/25 07:06:24;;;;;;;20.65;3.17;;;4.00;99.90;;;;;;6138367;23;20032;-91
2022/02/25 07:12:21;;;;;;;19.15;3.75;;;4.10;99.90;;;;;;6186112;23;20504;-91
2022/02/25 07:15:04;;;;;;;19.40;4.07;;;4.10;99.90;;;;;;6161047;23;20450;-91
2022/02/25 07:17:57;;;;;;;19.45;4.07;;;4.10;99.90;;;;;;6137992;23;20017;-91
2022/02/25 07:20:34;;;;;;;13.07;3.15;;;4.10;99.90;;;;;;6162019;23;20005;-91
2022/02/25 07:23:40;;;;;;;17.85;3.60;;;4.10;99.90;;;;;;6162183;23;20012;-91
2022/02/25 07:26:22;;;;;;;17.55;3.38;;;4.20;99.90;;;;;;6166496;23;20080;-91
2022/02/25 07:39:06;;;;;;;;;;;;;;;;;;;;;
2022/02/25 07:45:22;;;;;;;16.35;2.47;;;4.30;99.90;;;;;;6053714;23;20131;-91
2022/02/25 07:51:27;;;;;;;;;;;;;;;;;;;;;
2022/02/25 07:54:09;;;;;;;17.08;3.28;;;4.40;99.90;;;;;;6189054;23;20096;-91
2022/02/25 07:56:40;;;;;;;19.10;3.15;;;4.50;99.90;;;;;;6187789;23;20442;-91
2022/02/25 07:59:16;;;;;;;;;;;;;;;;;;;;;
2022/02/25 08:05:25;;;;;;;;;;;;;;;;;;;;;
2022/02/25 08:08:08;;;;;;;20.25;3.47;;;4.70;99.90;;;;;;6179922;23;20084;-90
2022/02/25 08:11:05;;;;;;;;;;;;;;;;;;;;;
2022/02/25 08:14:07;;;;;;;;;;;;;;;;;;;;;
2022/02/25 08:16:50;;;;;;;20.15;3.90;;;4.80;99.90;;;;;;6213580;23;19996;-91
2022/02/25 08:19:17;;;;;;;17.20;2.90;;;4.90;99.90;;;;;;6188534;23;19989;-91
2022/02/25 08:21:43;;;;;;;16.20;4.50;;;5.00;99.90;;;;;;6188015;23;20005;-94
2022/02/25 08:24:24;;;;;;;19.83;2.95;;;5.10;99.90;;;;;;6188062;23;19985;-92
2022/02/25 08:27:05;;;;;;;;;;;;;;;;;;;;;
2022/02/25 08:29:36;;;;;;;;;;;5.20;99.90;;;;;;6165395;23;19993;-90
2022/02/25 08:32:18;;;;;;;;;;;;;;;;;;;;;
2022/02/25 08:37:43;;;;;;;16.25;3.05;;;5.40;99.90;;;;;;6168485;23;20002;-90
2022/02/25 08:40:18;;;;;;;18.25;3.17;;;5.50;99.90;;;;;;6163223;23;20001;-90
2022/02/25 08:43:14;;;;;;;12.98;2.58;;;5.60;99.90;;;;;;6162537;23;20093;-89
2022/02/25 08:46:13;;;;;;;;;;;;;;;;;;;;;
2022/02/25 08:48:58;;;;;;;;;;;;;;;;;;;;;
2022/02/25 08:55:24;;;;;;;;;;;;;;;;;;;;;
2022/02/25 08:57:59;;;;;;;12.50;2.65;;;6.20;99.90;;;;;;6096877;23;20081;-89
2022/02/25 09:00:30;;;;;;;14.77;2.92;;;6.20;99.90;;;;;;6062027;23;20039;-89
2022/02/25 09:06:13;;;;;;;15.20;2.28;;;6.40;99.90;;;;;;6166891;23;20450;-89
2022/02/25 09:09:06;;;;;;;12.95;3.00;;;6.40;99.90;;;;;;6137708;23;20128;-93
2022/02/25 09:11:41;;;;;;;15.30;2.45;;;6.50;99.90;;;;;;6138634;23;20016;-89
2022/02/25 09:14:15;;;;;;;11.70;2.53;;;6.60;99.90;;;;;;6162125;23;20005;-88
2022/02/25 09:23:14;;;;;;;22.70;2.90;;;6.80;99.90;;;;;;6167135;23;20020;-89
2022/02/25 09:26:03;;;;;;;22.52;3.03;;;6.80;99.90;;;;;;6162395;23;20096;-93
2022/02/25 09:29:17;;;;;;;;;;;;;;;;;;;;;
2022/02/25 09:35:19;;;;;;;14.20;3.38;;;7.20;99.90;;;;;;6166856;23;20052;-89
2022/02/25 09:37:48;;;;;;;16.10;2.85;;;7.30;99.90;;;;;;6136873;23;20009;-89
2022/02/25 09:40:38;;;;;;;19.98;2.95;;;7.40;99.90;;;;;;6161752;23;20024;-88
2022/02/25 09:43:24;;;;;;;17.38;2.72;;;7.40;99.90;;;;;;6161012;23;20043;-89
2022/02/25 09:46:10;;;;;;;16.33;3.55;;;7.40;99.90;;;;;;6161407;23;20017;-89
2022/02/25 09:49:01;;;;;;;10.68;2.22;;;7.50;99.90;;;;;;6160253;23;20012;-90
2022/02/25 09:51:52;;;;;;;14.98;2.70;;;7.50;99.90;;;;;;6136678;23;20029;-89
2022/02/25 09:55:00;;;;;;;17.02;2.38;;;7.50;99.90;;;;;;6157777;23;20035;-89
2022/02/25 09:57:48;;;;;;;16.73;2.45;;;7.60;99.90;;;;;;6173945;23;20428;-90
2022/02/25 10:00:40;;;;;;;14.90;2.30;;;7.60;99.90;;;;;;6155990;23;20006;-91
2022/02/25 10:03:19;;;;;;;16.30;2.83;;;7.60;99.90;;;;;;6162482;23;20006;-90
2022/02/25 10:06:22;;;;;;;16.55;2.53;;;7.50;99.90;;;;;;6132164;23;20014;-90
2022/02/25 10:12:43;;;;;;;;;;;;;;;;;;;;;
2022/02/25 10:16:27;;;;;;;;;;;;;;;;;;;;;
2022/02/25 10:19:44;;;;;;;14.93;2.35;;;7.50;99.90;;;;;;6108607;23;20073;-89
2022/02/25 10:25:36;;;;;;;13.25;2.33;;;7.30;99.90;;;;;;6172789;23;20009;-88
2022/02/25 10:28:11;;;;;;;12.50;2.60;;;7.30;99.90;;;;;;6156100;23;20006;-90
2022/02/25 10:30:47;;;;;;;15.70;2.55;;;7.40;99.90;;;;;;6158070;23;20002;-91
2022/02/25 10:33:13;;;;;;;16.50;3.05;;;7.40;99.90;;;;;;6139077;23;20017;-91
2022/02/25 10:35:49;;;;;;;17.75;3.35;;;7.40;99.90;;;;;;6166974;23;20006;-89
2022/02/25 10:38:24;;;;;;;20.73;2.95;;;7.40;99.90;;;;;;6159024;23;20001;-89
2022/02/25 10:40:58;;;;;;;11.13;2.20;;;7.40;99.90;;;;;;6132035;23;20021;-95
2022/02/25 10:43:46;;;;;;;14.20;3.30;;;7.50;99.90;;;;;;6132745;23;20005;-89
2022/02/25 10:46:22;;;;;;;14.60;3.10;;;7.50;99.90;;;;;;6134246;23;20067;-89
2022/02/25 10:49:16;;;;;;;13.57;2.90;;;7.50;99.90;;;;;;6157467;23;20007;-88
2022/02/25 10:55:47;;;;;;;;;;;;;;;;;;;;;
2022/02/25 11:02:05;;;;;;;;;;;7.40;99.90;;;;;;5985170;23;20052;-90
2022/02/25 11:04:51;;;;;;;20.92;3.55;;;7.40;99.90;;;;;;5984914;23;19909;-90
2022/02/25 11:08:20;;;;;;;;;;;;;;;;;;;;;
2022/02/25 11:13:58;;;;;;;;;;;;;;;;;;;;;
2022/02/25 11:29:37;;;;;;;19.27;3.67;;;7.10;99.90;;;;;;6058227;23;20394;-95
2022/02/25 11:33:00;;;;;;;;;;;;;;;;;;;;;
2022/02/25 11:42:55;;;;;;;;;;;;;;;;;;;;;
2022/02/25 11:49:18;;;;;;;17.20;3.30;;;6.90;99.90;;;;;;6069832;23;20014;-95
2022/02/25 11:51:48;;;;;;;15.10;2.42;;;6.90;99.90;;;;;;6052448;23;20021;-94
2022/02/25 11:54:45;;;;;;;;;;;;;;;;;;;;;
2022/02/25 11:57:53;;;;;;;;;;;;;;;;;;;;;
2022/02/25 12:01:09;;;;;;;15.05;2.65;;;6.90;99.90;;;;;;6129099;23;19994;-93
2022/02/25 12:04:32;;;;;;;;;;;;;;;;;;;;;
2022/02/25 12:07:46;;;;;;;;;;;;;;;;;;;;;
2022/02/25 12:10:22;;;;;;;17.27;2.75;;;7.00;99.90;;;;;;6154524;23;20001;-95
2022/02/25 12:13:33;;;;;;;;;;;;;;;;;;;;;
2022/02/25 12:16:26;;;;;;;16.23;2.40;;;7.00;99.90;;;;;;6143534;23;20006;-93
2022/02/25 12:19:06;;;;;;;14.80;2.45;;;7.10;99.90;;;;;;6130280;23;19998;-93
2022/02/25 12:25:15;;;;;;;12.82;2.65;;;7.30;99.90;;;;;;6129630;23;20026;-94
2022/02/25 12:27:58;;;;;;;;;;;;;;;;;;;;;
2022/02/25 12:30:48;;;;;;;18.45;3.80;;;7.40;99.90;;;;;;6130001;23;20073;-92
2022/02/25 12:33:51;;;;;;;17.33;3.30;;;7.50;99.90;;;;;;6129454;23;20006;-91
2022/02/25 12:36:47;;;;;;;;;;;;;;;;;;;;;
2022/02/25 12:39:55;;;;;;;15.95;2.72;;;7.60;99.90;;;;;;6129604;23;20093;-92
2022/02/25 12:42:36;;;;;;;18.65;3.92;;;7.60;99.90;;;;;;6122723;23;20101;-92
2022/02/25 12:45:07;;;;;;;;;;;7.70;99.90;;;;;;6129045;23;20044;-90
2022/02/25 12:47:48;;;;;;;19.92;3.10;;;7.80;99.90;;;;;;6130577;23;19904;-92
2022/02/25 13:07:48;;;;;;;23.63;3.05;;;7.80;99.90;;;;;;6133953;23;20492;-92
2022/02/25 13:10:30;;;;;;;13.95;2.65;;;7.80;99.90;;;;;;6136522;23;20006;-91
2022/02/25 13:13:13;;;;;;;17.95;3.35;;;7.80;99.90;;;;;;6132949;23;20009;-90
2022/02/25 13:19:20;;;;;;;16.88;2.50;;;7.90;99.90;;;;;;6068503;23;20013;-91
2022/02/25 13:22:37;;;;;;;19.00;2.83;;;7.90;99.90;;;;;;6156913;23;20306;-91
2022/02/25 13:25:16;;;;;;;19.15;3.05;;;8.00;99.90;;;;;;6106412;23;20025;-90
2022/02/25 13:27:58;;;;;;;16.10;3.03;;;8.10;99.90;;;;;;6157348;23;20032;-91
2022/02/25 13:30:41;;;;;;;23.98;3.38;;;8.20;99.90;;;;;;6157208;23;20002;-90
2022/02/25 13:33:18;;;;;;;21.88;3.22;;;8.30;99.90;;;;;;6157281;23;20016;-91
2022/02/25 13:35:58;;;;;;;17.40;3.00;;;8.50;99.90;;;;;;6158157;23;20136;-89
2022/02/25 13:38:44;;;;;;;17.80;4.40;;;8.60;99.90;;;;;;6165976;23;20001;-89
2022/02/25 13:41:36;;;;;;;18.52;2.67;;;8.70;99.90;;;;;;6137375;23;20061;-91
2022/02/25 13:44:11;;;;;;;20.35;4.25;;;8.70;99.90;;;;;;6132990;23;20040;-90
2022/02/25 13:52:19;;;;;;;16.35;2.95;;;8.80;99.90;;;;;;6132487;23;20009;-90
2022/02/25 13:53:20;;;;;;;15.88;2.80;;;8.80;99.90;;;;;;6165726;23;20060;-90
2022/02/25 13:56:14;;;;;;;14.85;2.60;;;8.90;99.90;;;;;;6139230;23;20001;-90
2022/02/25 13:59:00;;;;;;;17.13;2.85;;;8.80;99.90;;;;;;6136409;23;20005;-89
2022/02/25 14:01:39;;;;;;;15.32;3.47;;;8.80;99.90;;;;;;6161608;23;20001;-90
2022/02/25 14:04:15;;;;;;;16.35;2.30;;;8.80;99.90;;;;;;6161465;23;20004;-90
2022/02/25 14:06:53;;;;;;;15.25;3.00;;;8.80;99.90;;;;;;6161680;23;20001;-92
2022/02/25 14:09:25;;;;;;;18.75;3.15;;;8.70;99.90;;;;;;6160529;23;20001;-89
2022/02/25 14:12:16;;;;;;;15.40;2.50;;;8.70;99.90;;;;;;6160327;23;20508;-90
2022/02/25 14:17:54;;;;;;;14.52;2.88;;;8.70;99.90;;;;;;6131512;23;20056;-90
2022/02/25 14:20:51;;;;;;;;;;;;;;;;;;;;;
2022/02/25 14:23:22;;;;;;;17.05;2.20;;;8.60;99.90;;;;;;6187407;23;20092;-89
2022/02/25 14:25:54;;;;;;;20.67;2.80;;;8.50;99.90;;;;;;6164059;23;20016;-90
2022/02/25 14:29:02;;;;;;;;;;;;;;;;;;;;;
2022/02/25 14:31:33;;;;;;;19.90;3.78;;;8.40;99.90;;;;;;6178868;23;20061;-90
2022/02/25 14:34:46;;;;;;;;;;;;;;;;;;;;;
2022/02/25 14:40:54;;;;;;;;;;;;;;;;;;;;;
2022/02/25 14:43:46;;;;;;;12.18;2.50;;;8.30;99.90;;;;;;6189673;23;20029;-91
2022/02/25 14:46:20;;;;;;;9.80;2.38;;;8.20;99.90;;;;;;6166490;23;19997;-90
2022/02/25 14:48:53;;;;;;;14.50;3.45;;;8.20;99.90;;;;;;6169937;23;20021;-90
2022/02/25 14:51:25;;;;;;;14.70;2.60;;;8.30;99.90;;;;;;6143660;23;20432;-90
2022/02/25 14:53:59;;;;;;;12.40;2.10;;;8.30;99.90;;;;;;6162771;23;20100;-90
2022/02/25 14:56:34;;;;;;;12.27;2.08;;;8.40;99.90;;;;;;6163335;23;20005;-90
2022/02/25 14:59:03;;;;;;;14.35;2.05;;;8.50;99.90;;;;;;6163553;23;20001;-89
2022/02/25 15:01:29;;;;;;;13.98;2.42;;;8.50;99.90;;;;;;6163178;23;20004;-89
2022/02/25 15:04:45;;;;;;;;;;;;;;;;;;;;;
2022/02/25 15:07:14;;;;;;;14.93;2.70;;;8.60;99.90;;;;;;6096969;23;20080;-89
2022/02/25 15:09:43;;;;;;;15.75;3.20;;;8.60;99.90;;;;;;6138154;23;20005;-90
2022/02/25 15:12:52;;;;;;;;;;;;;;;;;;;;;
2022/02/25 15:15:44;;;;;;;17.10;2.85;;;8.60;99.90;;;;;;6166427;23;20401;-89
2022/02/25 15:18:15;;;;;;;13.73;2.25;;;8.70;99.90;;;;;;6162904;23;20005;-90
2022/02/25 15:20:48;;;;;;;12.55;2.80;;;8.70;99.90;;;;;;6189284;23;20001;-89
2022/02/25 15:23:38;;;;;;;11.05;2.45;;;8.70;99.90;;;;;;6189059;23;20005;-90
2022/02/25 15:26:30;;;;;;;12.27;2.13;;;8.70;99.90;;;;;;6162833;23;20001;-89
2022/02/25 15:29:52;;;;;;;;;;;;;;;;;;;;;
2022/02/25 15:32:51;;;;;;;;;;;;;;;;;;;;;
2022/02/25 15:35:17;;;;;;;15.52;2.33;;;8.70;99.90;;;;;;6128484;23;20057;-90
2022/02/25 15:44:42;;;;;;;14.82;2.58;;;8.60;99.90;;;;;;6187699;23;20012;-93
2022/02/25 15:47:32;;;;;;;;;;;;;;;;;;;;;
2022/02/25 15:52:57;;;;;;;13.55;3.67;;;8.60;99.90;;;;;;6182635;23;20029;-90
2022/02/25 15:55:27;;;;;;;;;;;8.60;99.90;;;;;;6164625;23;20000;-94
2022/02/25 15:58:00;;;;;;;13.98;2.65;;;8.60;99.90;;;;;;6188786;23;19948;-89
2022/02/25 16:00:45;;;;;;;13.07;2.10;;;8.60;99.90;;;;;;6160753;23;20021;-90
2022/02/25 16:03:20;;;;;;;13.77;2.25;;;8.60;99.90;;;;;;6132000;23;20044;-89
2022/02/25 16:06:19;;;;;;;17.73;2.90;;;8.60;99.90;;;;;;6140312;23;20005;-89
2022/02/25 16:08:55;;;;;;;;;;;;;;;;;;;;;
2022/02/25 16:11:25;;;;;;;13.88;2.17;;;8.70;99.90;;;;;;6189963;23;20084;-88
2022/02/25 16:14:02;;;;;;;10.07;2.60;;;8.70;99.90;;;;;;6163981;23;20432;-88
2022/02/25 16:16:40;;;;;;;13.48;2.13;;;8.60;99.90;;;;;;6173201;23;20028;-89
2022/02/25 16:23:01;;;;;;;12.95;1.92;;;8.50;99.90;;;;;;6097903;23;19956;-88
2022/02/25 16:26:00;;;;;;;14.77;2.47;;;8.50;99.90;;;;;;6072231;23;20065;-89
2022/02/25 16:29:20;;;;;;;13.38;2.50;;;8.50;99.90;;;;;;6051787;23;20006;-88
2022/02/25 16:32:10;;;;;;;17.25;2.47;;;8.40;99.90;;;;;;6056971;23;20484;-88
2022/02/25 16:34:49;;;;;;;;;;;;;;;;;;;;;
2022/02/25 16:38:52;;;;;;;;;;;;;;;;;;;;;
2022/02/25 16:41:21;;;;;;;13.00;2.13;;;8.30;99.90;;;;;;6182924;23;20005;-90
2022/02/25 16:44:27;;;;;;;10.43;1.75;;;8.30;99.90;;;;;;6173534;23;20005;-88
2022/02/25 16:47:26;;;;;;;12.52;2.35;;;8.20;99.90;;;;;;6194888;23;20005;-89
2022/02/25 16:49:59;;;;;;;14.60;2.92;;;8.20;99.90;;;;;;6138808;23;20008;-88
2022/02/25 16:52:48;;;;;;;9.52;2.00;;;8.20;99.90;;;;;;6157766;23;20124;-89
2022/02/25 16:56:03;;;;;;;9.50;2.53;;;8.20;99.90;;;;;;6157658;23;20092;-89
2022/02/25 16:58:37;;;;;;;21.50;3.25;;;8.20;99.90;;;;;;6056261;23;20033;-89
2022/02/25 17:01:41;;;;;;;15.93;2.72;;;8.10;99.90;;;;;;6144255;23;20002;-89
2022/02/25 17:04:17;;;;;;;;;;;;;;;;;;;;;
2022/02/25 17:06:46;;;;;;;19.48;4.20;;;8.10;99.90;;;;;;6157991;23;20084;-89
2022/02/25 17:09:29;;;;;;;;;;;;;;;;;;;;;
2022/02/25 17:12:02;;;;;;;16.55;2.55;;;8.10;99.90;;;;;;6157960;23;20076;-89
2022/02/25 17:18:00;;;;;;;16.02;3.85;;;8.00;99.90;;;;;;6049354;23;20054;-89
2022/02/25 17:20:35;;;;;;;22.80;3.00;;;8.00;99.90;;;;;;6157334;23;20013;-89
2022/02/25 17:23:23;;;;;;;12.60;3.10;;;8.00;99.90;;;;;;6157834;23;20474;-89
2022/02/25 17:25:52;;;;;;;15.95;2.90;;;7.90;99.90;;;;;;6135941;23;20097;-90
2022/02/25 17:28:23;;;;;;;19.60;3.00;;;7.90;99.90;;;;;;6156723;23;20007;-89
2022/02/25 17:31:00;;;;;;;20.15;2.80;;;7.80;99.90;;;;;;6156736;23;20057;-89
2022/02/25 17:33:56;;;;;;;17.42;2.88;;;7.80;99.90;;;;;;6156199;23;20014;-89
2022/02/25 17:36:37;;;;;;;15.98;2.70;;;7.90;99.90;;;;;;6137911;23;20013;-89
2022/02/25 17:42:30;;;;;;;18.33;2.63;;;7.80;99.90;;;;;;6146227;23;20040;-89
2022/02/25 17:45:10;;;;;;;15.70;2.75;;;7.80;99.90;;;;;;6133354;23;20021;-91
2022/02/25 17:48:29;;;;;;;;;;;;;;;;;;;;;
2022/02/25 17:51:07;;;;;;;15.02;2.75;;;7.80;99.90;;;;;;6168738;23;20088;-91
2022/02/25 17:56:35;;;;;;;16.55;3.00;;;7.80;99.90;;;;;;6187851;23;20060;-92
2022/02/25 17:59:11;;;;;;;14.95;2.85;;;7.80;99.90;;;;;;6161416;23;20001;-89
2022/02/25 18:01:36;;;;;;;21.20;5.47;;;7.70;99.90;;;;;;6161514;23;19997;-91
2022/02/25 18:04:12;;;;;;;19.05;4.90;;;7.80;99.90;;;;;;6161608;23;20437;-90
2022/02/25 18:07:04;;;;;;;20.50;5.80;;;7.80;99.90;;;;;;6163114;23;20013;-93
2022/02/25 18:09:39;;;;;;;22.30;5.07;;;7.70;99.90;;;;;;6096989;23;20344;-90
2022/02/25 18:12:09;;;;;;;27.42;6.05;;;7.70;99.90;;;;;;6161703;23;20067;-91
2022/02/25 18:14:35;;;;;;;19.77;7.05;;;7.70;99.90;;;;;;6161313;23;20006;-89
2022/02/25 18:17:22;;;;;;;22.50;4.80;;;7.70;99.90;;;;;;6160847;23;20055;-90
2022/02/25 18:20:13;;;;;;;22.27;3.80;;;7.70;99.90;;;;;;6161463;23;20005;-90
2022/02/25 18:23:00;;;;;;;;;;;;;;;;;;;;;
2022/02/25 18:25:28;;;;;;;21.40;4.60;;;7.70;99.90;;;;;;6163305;23;20084;-89
2022/02/25 18:27:56;;;;;;;17.55;5.72;;;7.70;99.90;;;;;;6161395;23;20498;-90
2022/02/25 18:30:40;;;;;;;17.73;3.65;;;7.60;99.90;;;;;;6161301;23;20424;-90
2022/02/25 18:33:10;;;;;;;22.00;4.10;;;7.60;99.90;;;;;;6137593;23;20009;-91
2022/02/25 18:35:36;;;;;;;16.90;3.10;;;7.60;99.90;;;;;;6162555;23;20340;-89
2022/02/25 18:38:02;;;;;;;16.27;3.83;;;7.60;99.90;;;;;;6162271;23;19997;-90
2022/02/25 18:40:31;;;;;;;19.15;4.20;;;7.60;99.90;;;;;;6165880;23;20088;-92
2022/02/25 18:43:10;;;;;;;19.23;3.47;;;7.50;99.90;;;;;;6138228;23;20443;-90